sensor_id;sensor_type;location;lat;lon;timestamp;pressure;altitude;pressure_sealevel;temperature;humidity
52469;BME280;38381;53.688;10.776;2023-02-17T00:04:29;101266.25;;;6.76;100.00
52469;BME280;38381;53.688;10.776;2023-02-17T00:09:30;101274.41;;;6.90;100.00
52469;BME280;38381;53.688;10.776;2023-02-17T00:14:30;101268.63;;;6.99;100.00
52469;BME280;38381;53.688;10.776;2023-02-17T00:19:30;101258.56;;;7.07;100.00
52469;BME280;38381;53.688;10.776;2023-02-17T00:24:32;101250.56;;;6.97;100.00
52469;BME280;38381;53.688;10.776;2023-02-17T00:29:33;101255.50;;;6.90;100.00
52469;BME280;38381;53.688;10.776;2023-02-17T00:34:33;101255.34;;;7.14;100.00
52469;BME280;38381;53.688;10.776;2023-02-17T00:39:34;101248.06;;;7.31;100.00
52469;BME280;38381;53.688;10.776;2023-02-17T00:44:34;101249.28;;;7.13;100.00
52469;BME280;38381;53.688;10.776;2023-02-17T00:49:35;101240.59;;;7.10;100.00
52469;BME280;38381;53.688;10.776;2023-02-17T00:54:35;101233.50;;;7.02;100.00
52469;BME280;38381;53.688;10.776;2023-02-17T00:59:36;101226.22;;;7.19;100.00
52469;BME280;38381;53.688;10.776;2023-02-17T01:04:36;101214.09;;;7.15;100.00
52469;BME280;38381;53.688;10.776;2023-02-17T01:09:37;101216.41;;;7.36;100.00
52469;BME280;38381;53.688;10.776;2023-02-17T01:14:37;101210.00;;;7.22;100.00
52469;BME280;38381;53.688;10.776;2023-02-17T01:19:37;101194.25;;;7.44;100.00
52469;BME280;38381;53.688;10.776;2023-02-17T01:24:38;101189.53;;;7.30;100.00
52469;BME280;38381;53.688;10.776;2023-02-17T01:29:39;101182.44;;;7.21;100.00
52469;BME280;38381;53.688;10.776;2023-02-17T01:34:39;101168.94;;;7.31;100.00
52469;BME280;38381;53.688;10.776;2023-02-17T01:39:40;101164.69;;;7.33;100.00
52469;BME280;38381;53.688;10.776;2023-02-17T01:50:21;101137.91;;;7.28;100.00
52469;BME280;38381;53.688;10.776;2023-02-17T01:55:24;101125.56;;;7.16;100.00
52469;BME280;38381;53.688;10.776;2023-02-17T02:00:25;101123.56;;;7.39;100.00
52469;BME280;38381;53.688;10.776;2023-02-17T02:05:28;101112.59;;;7.48;100.00
52469;BME280;38381;53.688;10.776;2023-02-17T02:10:28;101103.63;;;7.34;100.00
52469;BME280;38381;53.688;10.776;2023-02-17T02:15:37;101085.25;;;7.56;100.00
52469;BME280;38381;53.688;10.776;2023-02-17T02:31:53;101046.56;;;7.56;100.00
52469;BME280;38381;53.688;10.776;2023-02-17T02:37:06;101047.22;;;7.48;100.00
52469;BME280;38381;53.688;10.776;2023-02-17T02:42:12;101036.28;;;7.58;100.00
52469;BME280;38381;53.688;10.776;2023-02-17T02:58:16;101022.72;;;7.68;100.00
52469;BME280;38381;53.688;10.776;2023-02-17T03:03:38;101018.09;;;7.93;100.00
52469;BME280;38381;53.688;10.776;2023-02-17T03:08:46;101005.00;;;7.83;100.00
52469;BME280;38381;53.688;10.776;2023-02-17T03:13:48;100995.78;;;7.95;100.00
52469;BME280;38381;53.688;10.776;2023-02-17T03:18:48;100996.50;;;7.89;100.00
52469;BME280;38381;53.688;10.776;2023-02-17T03:23:48;100980.75;;;7.75;100.00
52469;BME280;38381;53.688;10.776;2023-02-17T03:28:49;100983.81;;;7.98;100.00
52469;BME280;38381;53.688;10.776;2023-02-17T03:33:50;100973.38;;;7.94;100.00
52469;BME280;38381;53.688;10.776;2023-02-17T03:38:50;100971.28;;;8.20;100.00
52469;BME280;38381;53.688;10.776;2023-02-17T03:43:51;100964.38;;;8.17;100.00
52469;BME280;38381;53.688;10.776;2023-02-17T03:48:51;100965.88;;;8.07;100.00
52469;BME280;38381;53.688;10.776;2023-02-17T03:53:52;100983.88;;;8.03;100.00
52469;BME280;38381;53.688;10.776;2023-02-17T03:58:52;100974.94;;;8.30;100.00
52469;BME280;38381;53.688;10.776;2023-02-17T04:03:53;100968.38;;;8.45;100.00
52469;BME280;38381;53.688;10.776;2023-02-17T04:08:53;100961.31;;;8.38;100.00
52469;BME280;38381;53.688;10.776;2023-02-17T04:13:53;100974.22;;;8.38;100.00
52469;BME280;38381;53.688;10.776;2023-02-17T04:18:54;100974.59;;;8.57;100.00
52469;BME280;38381;53.688;10.776;2023-02-17T04:23:55;100961.69;;;8.55;100.00
52469;BME280;38381;53.688;10.776;2023-02-17T04:28:56;100952.13;;;8.53;100.00
52469;BME280;38381;53.688;10.776;2023-02-17T04:33:56;100964.16;;;8.51;100.00
52469;BME280;38381;53.688;10.776;2023-02-17T04:38:57;100942.50;;;8.44;100.00
52469;BME280;38381;53.688;10.776;2023-02-17T04:43:57;100946.16;;;8.57;100.00
52469;BME280;38381;53.688;10.776;2023-02-17T04:48:58;100945.31;;;8.56;100.00
52469;BME280;38381;53.688;10.776;2023-02-17T04:53:58;100935.38;;;8.81;100.00
52469;BME280;38381;53.688;10.776;2023-02-17T04:58:58;100931.88;;;8.76;100.00
52469;BME280;38381;53.688;10.776;2023-02-17T05:04:00;100922.41;;;8.78;100.00
52469;BME280;38381;53.688;10.776;2023-02-17T05:09:00;100916.25;;;8.70;100.00
52469;BME280;38381;53.688;10.776;2023-02-17T05:14:01;100900.63;;;8.63;100.00
52469;BME280;38381;53.688;10.776;2023-02-17T05:19:02;100880.06;;;8.70;100.00
52469;BME280;38381;53.688;10.776;2023-02-17T05:24:02;100878.38;;;8.75;100.00
52469;BME280;38381;53.688;10.776;2023-02-17T05:29:03;100874.22;;;8.83;100.00
52469;BME280;38381;53.688;10.776;2023-02-17T05:34:03;100865.69;;;8.89;100.00
52469;BME280;38381;53.688;10.776;2023-02-17T05:39:04;100849.31;;;8.88;100.00
52469;BME280;38381;53.688;10.776;2023-02-17T05:44:05;100846.53;;;8.77;100.00
52469;BME280;38381;53.688;10.776;2023-02-17T05:49:05;100841.25;;;8.68;100.00
52469;BME280;38381;53.688;10.776;2023-02-17T05:54:05;100837.31;;;8.95;100.00
52469;BME280;38381;53.688;10.776;2023-02-17T05:59:06;100830.22;;;8.80;100.00
52469;BME280;38381;53.688;10.776;2023-02-17T06:04:06;100837.16;;;8.84;100.00
52469;BME280;38381;53.688;10.776;2023-02-17T06:09:07;100839.00;;;8.91;100.00
52469;BME280;38381;53.688;10.776;2023-02-17T06:14:07;100833.88;;;8.96;100.00
52469;BME280;38381;53.688;10.776;2023-02-17T06:19:08;100822.72;;;8.98;100.00
52469;BME280;38381;53.688;10.776;2023-02-17T06:24:08;100801.81;;;8.84;100.00
52469;BME280;38381;53.688;10.776;2023-02-17T06:29:09;100789.03;;;8.95;100.00
52469;BME280;38381;53.688;10.776;2023-02-17T06:34:09;100798.38;;;8.85;100.00
52469;BME280;38381;53.688;10.776;2023-02-17T06:39:10;100789.91;;;8.94;100.00
52469;BME280;38381;53.688;10.776;2023-02-17T06:44:10;100779.56;;;8.97;100.00
52469;BME280;38381;53.688;10.776;2023-02-17T06:49:11;100748.41;;;8.86;100.00
52469;BME280;38381;53.688;10.776;2023-02-17T06:54:12;100748.59;;;9.02;100.00
52469;BME280;38381;53.688;10.776;2023-02-17T06:59:12;100735.69;;;9.03;100.00
52469;BME280;38381;53.688;10.776;2023-02-17T07:04:13;100730.34;;;8.91;100.00
52469;BME280;38381;53.688;10.776;2023-02-17T07:09:13;100725.88;;;8.79;100.00
52469;BME280;38381;53.688;10.776;2023-02-17T07:14:14;100733.03;;;8.97;100.00
52469;BME280;38381;53.688;10.776;2023-02-17T07:19:14;100718.19;;;8.82;100.00
52469;BME280;38381;53.688;10.776;2023-02-17T07:24:15;100716.66;;;9.00;100.00
52469;BME280;38381;53.688;10.776;2023-02-17T07:29:15;100706.38;;;9.06;100.00
52469;BME280;38381;53.688;10.776;2023-02-17T07:34:16;100698.53;;;8.97;100.00
52469;BME280;38381;53.688;10.776;2023-02-17T07:39:16;100695.91;;;8.95;100.00
52469;BME280;38381;53.688;10.776;2023-02-17T07:44:17;100678.72;;;8.99;100.00
52469;BME280;38381;53.688;10.776;2023-02-17T07:49:17;100675.19;;;8.91;100.00
52469;BME280;38381;53.688;10.776;2023-02-17T07:54:18;100678.69;;;8.97;100.00
52469;BME280;38381;53.688;10.776;2023-02-17T07:59:18;100677.03;;;9.04;100.00
52469;BME280;38381;53.688;10.776;2023-02-17T08:04:18;100680.59;;;9.12;100.00
52469;BME280;38381;53.688;10.776;2023-02-17T08:09:19;100657.34;;;9.15;100.00
52469;BME280;38381;53.688;10.776;2023-02-17T08:14:38;100665.06;;;9.11;100.00
52469;BME280;38381;53.688;10.776;2023-02-17T08:19:38;100651.28;;;9.13;100.00
52469;BME280;38381;53.688;10.776;2023-02-17T08:24:39;100635.66;;;9.04;100.00
52469;BME280;38381;53.688;10.776;2023-02-17T08:29:40;100636.66;;;9.15;100.00
52469;BME280;38381;53.688;10.776;2023-02-17T08:34:41;100618.53;;;9.15;100.00
52469;BME280;38381;53.688;10.776;2023-02-17T08:39:41;100609.00;;;9.10;100.00
52469;BME280;38381;53.688;10.776;2023-02-17T08:44:41;100594.50;;;9.25;100.00
52469;BME280;38381;53.688;10.776;2023-02-17T08:49:42;100596.09;;;9.13;100.00
52469;BME280;38381;53.688;10.776;2023-02-17T08:54:42;100579.72;;;9.15;100.00
52469;BME280;38381;53.688;10.776;2023-02-17T08:59:43;100578.16;;;9.31;100.00
52469;BME280;38381;53.688;10.776;2023-02-17T09:04:47;100584.09;;;9.21;100.00
52469;BME280;38381;53.688;10.776;2023-02-17T09:09:47;100577.16;;;9.17;100.00
52469;BME280;38381;53.688;10.776;2023-02-17T09:14:48;100576.31;;;9.19;100.00
52469;BME280;38381;53.688;10.776;2023-02-17T09:19:48;100566.06;;;9.30;100.00
52469;BME280;38381;53.688;10.776;2023-02-17T09:24:48;100540.88;;;9.12;100.00
52469;BME280;38381;53.688;10.776;2023-02-17T09:29:49;100561.63;;;9.18;100.00
52469;BME280;38381;53.688;10.776;2023-02-17T09:34:49;100541.00;;;9.23;100.00
52469;BME280;38381;53.688;10.776;2023-02-17T09:39:50;100535.03;;;9.33;100.00
52469;BME280;38381;53.688;10.776;2023-02-17T09:45:02;100536.72;;;9.30;100.00
52469;BME280;38381;53.688;10.776;2023-02-17T09:50:07;100512.56;;;9.31;100.00
52469;BME280;38381;53.688;10.776;2023-02-17T09:55:14;100489.34;;;9.40;100.00
52469;BME280;38381;53.688;10.776;2023-02-17T10:00:20;100495.34;;;9.34;100.00
52469;BME280;38381;53.688;10.776;2023-02-17T10:05:27;100492.69;;;9.26;100.00
52469;BME280;38381;53.688;10.776;2023-02-17T10:10:35;100500.59;;;9.45;100.00
52469;BME280;38381;53.688;10.776;2023-02-17T10:15:40;100490.97;;;9.29;100.00
52469;BME280;38381;53.688;10.776;2023-02-17T10:20:57;100496.22;;;9.36;100.00
52469;BME280;38381;53.688;10.776;2023-02-17T10:36:47;100479.13;;;9.60;100.00
52469;BME280;38381;53.688;10.776;2023-02-17T10:41:53;100485.97;;;9.53;100.00
52469;BME280;38381;53.688;10.776;2023-02-17T10:46:53;100504.88;;;9.43;100.00
52469;BME280;38381;53.688;10.776;2023-02-17T10:52:00;100495.44;;;9.46;100.00
52469;BME280;38381;53.688;10.776;2023-02-17T10:57:02;100486.03;;;9.61;100.00
52469;BME280;38381;53.688;10.776;2023-02-17T11:02:33;100466.19;;;9.58;100.00
52469;BME280;38381;53.688;10.776;2023-02-17T11:07:36;100443.69;;;9.50;100.00
52469;BME280;38381;53.688;10.776;2023-02-17T11:12:39;100445.47;;;9.63;100.00
52469;BME280;38381;53.688;10.776;2023-02-17T11:17:40;100433.38;;;9.63;100.00
52469;BME280;38381;53.688;10.776;2023-02-17T11:22:42;100444.66;;;9.73;100.00
52469;BME280;38381;53.688;10.776;2023-02-17T11:28:03;100434.38;;;9.82;100.00
52469;BME280;38381;53.688;10.776;2023-02-17T11:33:14;100434.31;;;9.73;100.00
52469;BME280;38381;53.688;10.776;2023-02-17T11:38:18;100434.34;;;9.79;100.00
52469;BME280;38381;53.688;10.776;2023-02-17T11:43:19;100425.75;;;9.90;100.00
52469;BME280;38381;53.688;10.776;2023-02-17T11:59:39;100401.56;;;9.87;100.00
52469;BME280;38381;53.688;10.776;2023-02-17T12:04:53;100408.50;;;9.96;100.00
52469;BME280;38381;53.688;10.776;2023-02-17T12:10:05;100410.25;;;9.99;100.00
52469;BME280;38381;53.688;10.776;2023-02-17T12:15:42;100406.78;;;9.97;100.00
52469;BME280;38381;53.688;10.776;2023-02-17T12:21:00;100408.53;;;10.07;100.00
52469;BME280;38381;53.688;10.776;2023-02-17T12:36:39;100389.63;;;10.30;100.00
52469;BME280;38381;53.688;10.776;2023-02-17T12:41:52;100405.13;;;10.22;100.00
52469;BME280;38381;53.688;10.776;2023-02-17T12:46:55;100396.53;;;10.31;100.00
52469;BME280;38381;53.688;10.776;2023-02-17T12:52:27;100406.03;;;10.33;100.00
52469;BME280;38381;53.688;10.776;2023-02-17T12:57:33;100393.94;;;10.37;100.00
52469;BME280;38381;53.688;10.776;2023-02-17T13:02:37;100393.94;;;10.34;100.00
52469;BME280;38381;53.688;10.776;2023-02-17T13:07:45;100391.28;;;10.24;100.00
52469;BME280;38381;53.688;10.776;2023-02-17T13:12:57;100384.44;;;10.30;100.00
52469;BME280;38381;53.688;10.776;2023-02-17T13:18:28;100380.13;;;10.35;100.00
52469;BME280;38381;53.688;10.776;2023-02-17T13:23:35;100389.63;;;10.39;100.00
52469;BME280;38381;53.688;10.776;2023-02-17T13:28:38;100385.28;;;10.39;100.00
52469;BME280;38381;53.688;10.776;2023-02-17T13:33:41;100381.81;;;10.31;100.00
52469;BME280;38381;53.688;10.776;2023-02-17T13:38:55;100389.63;;;10.37;100.00
52469;BME280;38381;53.688;10.776;2023-02-17T13:44:24;100363.69;;;10.39;100.00
52469;BME280;38381;53.688;10.776;2023-02-17T13:49:27;100366.31;;;10.42;100.00
52469;BME280;38381;53.688;10.776;2023-02-17T13:54:28;100394.81;;;10.39;100.00
52469;BME280;38381;53.688;10.776;2023-02-17T13:59:28;100412.94;;;10.37;100.00
52469;BME280;38381;53.688;10.776;2023-02-17T14:04:30;100406.88;;;10.35;100.00
52469;BME280;38381;53.688;10.776;2023-02-17T14:09:32;100364.53;;;10.33;100.00
52469;BME280;38381;53.688;10.776;2023-02-17T14:14:35;100355.06;;;10.46;100.00
52469;BME280;38381;53.688;10.776;2023-02-17T14:19:47;100366.28;;;10.45;100.00
52469;BME280;38381;53.688;10.776;2023-02-17T14:24:57;100385.28;;;10.30;100.00
52469;BME280;38381;53.688;10.776;2023-02-17T14:29:58;100382.66;;;10.19;100.00
52469;BME280;38381;53.688;10.776;2023-02-17T14:40:20;100386.97;;;10.19;100.00
52469;BME280;38381;53.688;10.776;2023-02-17T14:45:22;100397.34;;;10.28;96.24
52469;BME280;38381;53.688;10.776;2023-02-17T14:50:22;100396.47;;;10.18;92.78
52469;BME280;38381;53.688;10.776;2023-02-17T14:55:28;100408.56;;;10.18;89.55
52469;BME280;38381;53.688;10.776;2023-02-17T15:00:31;100428.44;;;10.11;89.58
52469;BME280;38381;53.688;10.776;2023-02-17T15:05:31;100411.09;;;9.99;86.51
52469;BME280;38381;53.688;10.776;2023-02-17T15:10:31;100425.75;;;9.90;83.28
52469;BME280;38381;53.688;10.776;2023-02-17T15:15:32;100439.50;;;9.73;83.02
52469;BME280;38381;53.688;10.776;2023-02-17T15:25:43;100465.28;;;9.55;81.27
52469;BME280;38381;53.688;10.776;2023-02-17T15:30:51;100487.69;;;9.50;80.71
52469;BME280;38381;53.688;10.776;2023-02-17T15:35:53;100492.75;;;9.31;80.13
52469;BME280;38381;53.688;10.776;2023-02-17T15:40:54;100504.78;;;9.23;80.21
52469;BME280;38381;53.688;10.776;2023-02-17T15:45:58;100520.31;;;9.26;80.56
52469;BME280;38381;53.688;10.776;2023-02-17T15:50:58;100528.00;;;9.17;81.19
52469;BME280;38381;53.688;10.776;2023-02-17T15:55:59;100514.06;;;9.01;80.35
52469;BME280;38381;53.688;10.776;2023-02-17T16:01:02;100532.94;;;8.91;81.35
52469;BME280;38381;53.688;10.776;2023-02-17T16:06:03;100524.19;;;8.76;81.68
52469;BME280;38381;53.688;10.776;2023-02-17T16:11:03;100548.41;;;8.84;81.91
52469;BME280;38381;53.688;10.776;2023-02-17T16:16:08;100560.34;;;8.72;82.91
52469;BME280;38381;53.688;10.776;2023-02-17T16:21:14;100550.63;;;8.52;82.25
52469;BME280;38381;53.688;10.776;2023-02-17T16:26:28;100570.34;;;8.44;80.99
52469;BME280;38381;53.688;10.776;2023-02-17T16:31:30;100567.66;;;8.38;80.42
52469;BME280;38381;53.688;10.776;2023-02-17T16:36:33;100575.19;;;8.21;80.94
52469;BME280;38381;53.688;10.776;2023-02-17T16:41:34;100594.91;;;8.16;79.76
52469;BME280;38381;53.688;10.776;2023-02-17T16:46:36;100623.19;;;8.05;78.80
52469;BME280;38381;53.688;10.776;2023-02-17T16:51:36;100628.34;;;8.05;78.65
52469;BME280;38381;53.688;10.776;2023-02-17T16:56:43;100631.66;;;7.95;77.90
52469;BME280;38381;53.688;10.776;2023-02-17T17:01:44;100665.03;;;7.82;78.13
52469;BME280;38381;53.688;10.776;2023-02-17T17:06:47;100658.03;;;7.75;78.01
52469;BME280;38381;53.688;10.776;2023-02-17T17:11:48;100632.91;;;7.66;77.80
52469;BME280;38381;53.688;10.776;2023-02-17T17:16:55;100655.31;;;7.68;77.20
52469;BME280;38381;53.688;10.776;2023-02-17T17:21:56;100677.50;;;7.56;76.87
52469;BME280;38381;53.688;10.776;2023-02-17T17:26:57;100691.31;;;7.60;76.71
52469;BME280;38381;53.688;10.776;2023-02-17T17:31:57;100686.88;;;7.51;76.73
52469;BME280;38381;53.688;10.776;2023-02-17T17:36:57;100701.66;;;7.60;76.28
52469;BME280;38381;53.688;10.776;2023-02-17T17:41:59;100706.59;;;7.48;76.57
52469;BME280;38381;53.688;10.776;2023-02-17T17:46:59;100716.00;;;7.45;76.92
52469;BME280;38381;53.688;10.776;2023-02-17T17:51:59;100707.56;;;7.54;76.63
52469;BME280;38381;53.688;10.776;2023-02-17T17:57:00;100722.25;;;7.57;76.07
52469;BME280;38381;53.688;10.776;2023-02-17T18:02:00;100740.88;;;7.42;77.02
52469;BME280;38381;53.688;10.776;2023-02-17T18:07:01;100735.03;;;7.51;76.19
52469;BME280;38381;53.688;10.776;2023-02-17T18:12:06;100727.81;;;7.33;76.58
52469;BME280;38381;53.688;10.776;2023-02-17T18:17:08;100751.13;;;7.37;76.52
52469;BME280;38381;53.688;10.776;2023-02-17T18:22:10;100770.91;;;7.37;76.67
52469;BME280;38381;53.688;10.776;2023-02-17T18:27:11;100769.06;;;7.31;76.49
52469;BME280;38381;53.688;10.776;2023-02-17T18:32:11;100806.94;;;7.32;76.18
52469;BME280;38381;53.688;10.776;2023-02-17T18:37:12;100813.00;;;7.34;76.39
52469;BME280;38381;53.688;10.776;2023-02-17T18:42:12;100786.31;;;7.34;75.55
52469;BME280;38381;53.688;10.776;2023-02-17T18:47:13;100808.78;;;7.39;76.02
52469;BME280;38381;53.688;10.776;2023-02-17T18:52:13;100823.44;;;7.40;75.91
52469;BME280;38381;53.688;10.776;2023-02-17T18:57:14;100823.28;;;7.33;76.61
52469;BME280;38381;53.688;10.776;2023-02-17T19:02:14;100836.19;;;7.33;76.67
52469;BME280;38381;53.688;10.776;2023-02-17T19:07:15;100842.06;;;7.27;76.53
52469;BME280;38381;53.688;10.776;2023-02-17T19:12:16;100839.34;;;7.21;76.81
52469;BME280;38381;53.688;10.776;2023-02-17T19:17:16;100850.53;;;7.21;76.71
52469;BME280;38381;53.688;10.776;2023-02-17T19:22:19;100845.28;;;7.17;77.08
52469;BME280;38381;53.688;10.776;2023-02-17T19:27:19;100844.13;;;7.02;77.18
52469;BME280;38381;53.688;10.776;2023-02-17T19:32:20;100858.78;;;7.03;77.30
52469;BME280;38381;53.688;10.776;2023-02-17T19:37:20;100903.44;;;7.02;76.93
52469;BME280;38381;53.688;10.776;2023-02-17T19:42:21;100873.25;;;6.98;77.36
52469;BME280;38381;53.688;10.776;2023-02-17T19:47:22;100893.72;;;6.92;77.70
52469;BME280;38381;53.688;10.776;2023-02-17T19:52:22;100866.41;;;7.00;77.85
52469;BME280;38381;53.688;10.776;2023-02-17T19:57:22;100924.91;;;7.03;77.62
52469;BME280;38381;53.688;10.776;2023-02-17T20:02:23;100921.44;;;7.01;77.13
52469;BME280;38381;53.688;10.776;2023-02-17T20:07:23;100929.94;;;6.97;75.90
52469;BME280;38381;53.688;10.776;2023-02-17T20:12:24;100948.16;;;7.04;75.87
52469;BME280;38381;53.688;10.776;2023-02-17T20:17:24;100933.31;;;6.94;75.95
52469;BME280;38381;53.688;10.776;2023-02-17T20:22:25;100941.06;;;6.94;75.85
52469;BME280;38381;53.688;10.776;2023-02-17T20:27:25;100953.28;;;7.01;75.43
52469;BME280;38381;53.688;10.776;2023-02-17T20:32:26;100951.16;;;6.87;74.50
52469;BME280;38381;53.688;10.776;2023-02-17T20:37:27;100953.63;;;6.82;74.35
52469;BME280;38381;53.688;10.776;2023-02-17T20:42:27;100961.56;;;6.90;74.04
52469;BME280;38381;53.688;10.776;2023-02-17T20:47:28;100977.25;;;6.97;74.86
52469;BME280;38381;53.688;10.776;2023-02-17T20:52:28;100990.03;;;6.94;75.49
52469;BME280;38381;53.688;10.776;2023-02-17T20:57:29;100996.22;;;7.01;75.41
52469;BME280;38381;53.688;10.776;2023-02-17T21:02:30;100994.34;;;6.94;76.10
52469;BME280;38381;53.688;10.776;2023-02-17T21:07:30;101002.78;;;6.88;75.66
52469;BME280;38381;53.688;10.776;2023-02-17T21:12:31;101012.34;;;6.92;75.43
52469;BME280;38381;53.688;10.776;2023-02-17T21:17:31;101008.84;;;6.90;75.94
52469;BME280;38381;53.688;10.776;2023-02-17T21:22:32;101011.31;;;6.85;76.62
52469;BME280;38381;53.688;10.776;2023-02-17T21:27:33;101012.13;;;6.83;76.47
52469;BME280;38381;53.688;10.776;2023-02-17T21:32:34;101023.34;;;6.87;76.75
52469;BME280;38381;53.688;10.776;2023-02-17T21:37:34;101032.00;;;6.89;76.92
52469;BME280;38381;53.688;10.776;2023-02-17T21:42:36;101022.59;;;6.89;77.46
52469;BME280;38381;53.688;10.776;2023-02-17T21:47:55;101043.13;;;6.86;77.42
52469;BME280;38381;53.688;10.776;2023-02-17T21:52:55;101050.03;;;6.87;76.69
52469;BME280;38381;53.688;10.776;2023-02-17T21:57:56;101064.59;;;6.85;77.31
52469;BME280;38381;53.688;10.776;2023-02-17T22:02:56;101061.03;;;6.81;76.02
52469;BME280;38381;53.688;10.776;2023-02-17T22:07:57;101055.63;;;6.72;75.98
52469;BME280;38381;53.688;10.776;2023-02-17T22:12:57;101068.94;;;6.88;76.17
52469;BME280;38381;53.688;10.776;2023-02-17T22:17:57;101061.63;;;6.71;75.88
52469;BME280;38381;53.688;10.776;2023-02-17T22:22:58;101076.34;;;6.75;75.65
52469;BME280;38381;53.688;10.776;2023-02-17T22:27:58;101089.34;;;6.80;75.73
52469;BME280;38381;53.688;10.776;2023-02-17T22:32:59;101089.28;;;6.77;75.68
52469;BME280;38381;53.688;10.776;2023-02-17T22:37:59;101118.63;;;6.82;76.20
52469;BME280;38381;53.688;10.776;2023-02-17T22:42:59;101096.84;;;6.71;75.88
52469;BME280;38381;53.688;10.776;2023-02-17T22:48:00;101110.38;;;6.63;76.73
52469;BME280;38381;53.688;10.776;2023-02-17T22:53:01;101132.03;;;6.69;76.79
52469;BME280;38381;53.688;10.776;2023-02-17T22:58:01;101122.63;;;6.71;76.37
52469;BME280;38381;53.688;10.776;2023-02-17T23:03:01;101108.47;;;6.56;77.01
52469;BME280;38381;53.688;10.776;2023-02-17T23:08:03;101129.16;;;6.59;76.78
52469;BME280;38381;53.688;10.776;2023-02-17T23:13:03;101130.25;;;6.68;77.14
52469;BME280;38381;53.688;10.776;2023-02-17T23:18:08;101124.06;;;6.61;77.28
52469;BME280;38381;53.688;10.776;2023-02-17T23:23:09;101131.69;;;6.58;77.00
52469;BME280;38381;53.688;10.776;2023-02-17T23:28:10;101141.44;;;6.68;77.29
52469;BME280;38381;53.688;10.776;2023-02-17T23:33:12;101150.63;;;6.58;77.53
52469;BME280;38381;53.688;10.776;2023-02-17T23:38:16;101153.03;;;6.54;77.58
52469;BME280;38381;53.688;10.776;2023-02-17T23:43:17;101159.13;;;6.56;78.44
52469;BME280;38381;53.688;10.776;2023-02-17T23:48:18;101161.38;;;6.45;79.34
52469;BME280;38381;53.688;10.776;2023-02-17T23:53:18;101162.88;;;6.37;78.88
52469;BME280;38381;53.688;10.776;2023-02-17T23:58:18;101172.53;;;6.44;79.44
